sensor_id;sensor_type;location;lat;lon;timestamp;pressure;altitude;pressure_sealevel;temperature;humidity
60611;BME280;46439;51.164;13.572;2023-05-10T00:01:01;99589.14;;;15.05;100.00
60611;BME280;46439;51.164;13.572;2023-05-10T00:03:29;99589.31;;;15.04;100.00
60611;BME280;46439;51.164;13.572;2023-05-10T00:05:58;99587.87;;;15.03;100.00
60611;BME280;46439;51.164;13.572;2023-05-10T00:08:26;99586.40;;;15.00;100.00
60611;BME280;46439;51.164;13.572;2023-05-10T00:10:55;99586.66;;;14.95;100.00
60611;BME280;46439;51.164;13.572;2023-05-10T00:13:25;99583.45;;;14.93;100.00
60611;BME280;46439;51.164;13.572;2023-05-10T00:15:53;99584.54;;;14.92;100.00
60611;BME280;46439;51.164;13.572;2023-05-10T00:18:22;99580.27;;;14.90;100.00
60611;BME280;46439;51.164;13.572;2023-05-10T00:21:04;99577.48;;;14.88;100.00
60611;BME280;46439;51.164;13.572;2023-05-10T00:23:33;99572.27;;;14.88;100.00
60611;BME280;46439;51.164;13.572;2023-05-10T00:26:01;99573.69;;;14.85;100.00
60611;BME280;46439;51.164;13.572;2023-05-10T00:28:30;99575.71;;;14.80;100.00
60611;BME280;46439;51.164;13.572;2023-05-10T00:30:58;99570.30;;;14.76;100.00
60611;BME280;46439;51.164;13.572;2023-05-10T00:33:27;99569.52;;;14.73;100.00
60611;BME280;46439;51.164;13.572;2023-05-10T00:35:55;99570.04;;;14.72;100.00
60611;BME280;46439;51.164;13.572;2023-05-10T00:38:24;99566.31;;;14.70;100.00
60611;BME280;46439;51.164;13.572;2023-05-10T00:40:52;99559.18;;;14.67;100.00
60611;BME280;46439;51.164;13.572;2023-05-10T00:43:21;99561.33;;;14.62;100.00
60611;BME280;46439;51.164;13.572;2023-05-10T00:45:49;99562.54;;;14.61;100.00
60611;BME280;46439;51.164;13.572;2023-05-10T00:48:18;99557.02;;;14.56;100.00
60611;BME280;46439;51.164;13.572;2023-05-10T00:50:47;99558.11;;;14.55;100.00
60611;BME280;46439;51.164;13.572;2023-05-10T00:53:16;99555.26;;;14.54;100.00
60611;BME280;46439;51.164;13.572;2023-05-10T00:55:45;99557.60;;;14.53;100.00
60611;BME280;46439;51.164;13.572;2023-05-10T00:58:13;99554.15;;;14.51;100.00
60611;BME280;46439;51.164;13.572;2023-05-10T01:00:42;99555.41;;;14.51;100.00
60611;BME280;46439;51.164;13.572;2023-05-10T01:03:14;99550.31;;;14.50;100.00
60611;BME280;46439;51.164;13.572;2023-05-10T01:05:42;99550.82;;;14.48;100.00
60611;BME280;46439;51.164;13.572;2023-05-10T01:08:11;99551.48;;;14.47;100.00
60611;BME280;46439;51.164;13.572;2023-05-10T01:10:39;99550.96;;;14.46;100.00
60611;BME280;46439;51.164;13.572;2023-05-10T01:13:09;99543.31;;;14.43;100.00
60611;BME280;46439;51.164;13.572;2023-05-10T01:15:38;99544.65;;;14.41;100.00
60611;BME280;46439;51.164;13.572;2023-05-10T01:18:07;99543.25;;;14.37;100.00
60611;BME280;46439;51.164;13.572;2023-05-10T01:20:43;99544.96;;;14.34;100.00
60611;BME280;46439;51.164;13.572;2023-05-10T01:23:34;99537.71;;;14.28;100.00
60611;BME280;46439;51.164;13.572;2023-05-10T01:26:22;99535.30;;;14.26;100.00
60611;BME280;46439;51.164;13.572;2023-05-10T01:29:21;99539.23;;;14.22;100.00
60611;BME280;46439;51.164;13.572;2023-05-10T01:32:17;99535.56;;;14.20;100.00
60611;BME280;46439;51.164;13.572;2023-05-10T01:34:57;99533.37;;;14.15;100.00
60611;BME280;46439;51.164;13.572;2023-05-10T01:37:33;99531.33;;;14.11;100.00
60611;BME280;46439;51.164;13.572;2023-05-10T01:40:11;99527.11;;;14.07;100.00
60611;BME280;46439;51.164;13.572;2023-05-10T01:42:49;99525.78;;;14.06;100.00
60611;BME280;46439;51.164;13.572;2023-05-10T01:45:24;99524.95;;;14.08;100.00
60611;BME280;46439;51.164;13.572;2023-05-10T01:48:02;99524.79;;;14.06;100.00
60611;BME280;46439;51.164;13.572;2023-05-10T01:50:33;99523.66;;;14.00;100.00
60611;BME280;46439;51.164;13.572;2023-05-10T01:53:05;99524.48;;;13.97;100.00
60611;BME280;46439;51.164;13.572;2023-05-10T01:55:39;99526.52;;;13.94;100.00
60611;BME280;46439;51.164;13.572;2023-05-10T01:58:13;99529.06;;;13.91;100.00
60611;BME280;46439;51.164;13.572;2023-05-10T02:00:44;99528.54;;;13.88;100.00
60611;BME280;46439;51.164;13.572;2023-05-10T02:03:15;99532.98;;;13.85;100.00
60611;BME280;46439;51.164;13.572;2023-05-10T02:05:44;99533.55;;;13.82;100.00
60611;BME280;46439;51.164;13.572;2023-05-10T02:08:16;99532.42;;;13.81;100.00
60611;BME280;46439;51.164;13.572;2023-05-10T02:10:46;99532.26;;;13.80;100.00
60611;BME280;46439;51.164;13.572;2023-05-10T02:13:19;99529.50;;;13.78;100.00
60611;BME280;46439;51.164;13.572;2023-05-10T02:15:50;99524.50;;;13.74;100.00
60611;BME280;46439;51.164;13.572;2023-05-10T02:18:20;99525.42;;;13.72;100.00
60611;BME280;46439;51.164;13.572;2023-05-10T02:20:49;99525.20;;;13.71;100.00
60611;BME280;46439;51.164;13.572;2023-05-10T02:23:18;99522.75;;;13.68;100.00
60611;BME280;46439;51.164;13.572;2023-05-10T02:25:49;99518.67;;;13.61;100.00
60611;BME280;46439;51.164;13.572;2023-05-10T02:28:20;99514.63;;;13.57;100.00
60611;BME280;46439;51.164;13.572;2023-05-10T02:30:50;99515.92;;;13.53;100.00
60611;BME280;46439;51.164;13.572;2023-05-10T02:33:20;99507.06;;;13.51;100.00
60611;BME280;46439;51.164;13.572;2023-05-10T02:35:49;99511.08;;;13.51;100.00
60611;BME280;46439;51.164;13.572;2023-05-10T02:38:20;99504.86;;;13.51;100.00
60611;BME280;46439;51.164;13.572;2023-05-10T02:40:50;99502.86;;;13.49;100.00
60611;BME280;46439;51.164;13.572;2023-05-10T02:43:19;99502.60;;;13.50;100.00
60611;BME280;46439;51.164;13.572;2023-05-10T02:45:51;99504.15;;;13.46;100.00
60611;BME280;46439;51.164;13.572;2023-05-10T02:48:20;99506.39;;;13.40;100.00
60611;BME280;46439;51.164;13.572;2023-05-10T02:50:49;99510.52;;;13.41;100.00
60611;BME280;46439;51.164;13.572;2023-05-10T02:53:20;99507.81;;;13.39;100.00
60611;BME280;46439;51.164;13.572;2023-05-10T02:55:53;99506.98;;;13.36;100.00
60611;BME280;46439;51.164;13.572;2023-05-10T02:58:25;99506.69;;;13.25;100.00
60611;BME280;46439;51.164;13.572;2023-05-10T03:00:55;99506.56;;;13.20;100.00
60611;BME280;46439;51.164;13.572;2023-05-10T03:03:23;99511.40;;;13.20;100.00
60611;BME280;46439;51.164;13.572;2023-05-10T03:05:52;99513.02;;;13.17;100.00
60611;BME280;46439;51.164;13.572;2023-05-10T03:08:24;99514.77;;;13.19;100.00
60611;BME280;46439;51.164;13.572;2023-05-10T03:11:01;99511.80;;;13.19;100.00
60611;BME280;46439;51.164;13.572;2023-05-10T03:13:39;99512.36;;;13.20;100.00
60611;BME280;46439;51.164;13.572;2023-05-10T03:16:14;99510.65;;;13.20;100.00
60611;BME280;46439;51.164;13.572;2023-05-10T03:18:48;99507.40;;;13.16;100.00
60611;BME280;46439;51.164;13.572;2023-05-10T03:21:19;99504.67;;;13.12;100.00
60611;BME280;46439;51.164;13.572;2023-05-10T03:23:54;99503.92;;;13.10;100.00
60611;BME280;46439;51.164;13.572;2023-05-10T03:26:27;99501.00;;;13.07;100.00
60611;BME280;46439;51.164;13.572;2023-05-10T03:28:57;99502.98;;;13.04;100.00
60611;BME280;46439;51.164;13.572;2023-05-10T03:31:27;99510.67;;;13.04;100.00
60611;BME280;46439;51.164;13.572;2023-05-10T03:33:56;99505.70;;;13.05;100.00
60611;BME280;46439;51.164;13.572;2023-05-10T03:36:24;99508.04;;;13.03;100.00
60611;BME280;46439;51.164;13.572;2023-05-10T03:38:53;99510.58;;;13.02;100.00
60611;BME280;46439;51.164;13.572;2023-05-10T03:41:21;99513.12;;;13.02;100.00
60611;BME280;46439;51.164;13.572;2023-05-10T03:43:50;99514.04;;;13.00;100.00
60611;BME280;46439;51.164;13.572;2023-05-10T03:46:18;99517.15;;;12.97;100.00
60611;BME280;46439;51.164;13.572;2023-05-10T03:48:46;99517.90;;;12.96;100.00
60611;BME280;46439;51.164;13.572;2023-05-10T03:51:15;99524.06;;;12.96;100.00
60611;BME280;46439;51.164;13.572;2023-05-10T03:53:43;99521.23;;;12.94;100.00
60611;BME280;46439;51.164;13.572;2023-05-10T03:56:12;99519.73;;;12.94;100.00
60611;BME280;46439;51.164;13.572;2023-05-10T03:58:41;99517.40;;;12.96;100.00
60611;BME280;46439;51.164;13.572;2023-05-10T04:01:09;99516.73;;;12.97;100.00
60611;BME280;46439;51.164;13.572;2023-05-10T04:03:38;99515.91;;;12.97;100.00
60611;BME280;46439;51.164;13.572;2023-05-10T04:06:07;99516.83;;;12.97;100.00
60611;BME280;46439;51.164;13.572;2023-05-10T04:08:39;99518.08;;;12.97;100.00
60611;BME280;46439;51.164;13.572;2023-05-10T04:11:08;99516.98;;;12.95;100.00
60611;BME280;46439;51.164;13.572;2023-05-10T04:13:39;99517.61;;;12.95;100.00
60611;BME280;46439;51.164;13.572;2023-05-10T04:16:08;99519.54;;;12.94;100.00
60611;BME280;46439;51.164;13.572;2023-05-10T04:18:36;99518.15;;;12.94;100.00
60611;BME280;46439;51.164;13.572;2023-05-10T04:21:10;99511.95;;;12.95;100.00
60611;BME280;46439;51.164;13.572;2023-05-10T04:23:39;99503.36;;;12.94;100.00
60611;BME280;46439;51.164;13.572;2023-05-10T04:26:08;99498.55;;;12.93;100.00
60611;BME280;46439;51.164;13.572;2023-05-10T04:28:36;99498.34;;;12.94;100.00
60611;BME280;46439;51.164;13.572;2023-05-10T04:31:07;99498.25;;;12.92;100.00
60611;BME280;46439;51.164;13.572;2023-05-10T04:33:36;99497.85;;;12.90;100.00
60611;BME280;46439;51.164;13.572;2023-05-10T04:36:05;99504.39;;;12.92;100.00
60611;BME280;46439;51.164;13.572;2023-05-10T04:38:34;99499.56;;;12.94;100.00
60611;BME280;46439;51.164;13.572;2023-05-10T04:41:09;99502.19;;;12.97;100.00
60611;BME280;46439;51.164;13.572;2023-05-10T04:43:39;99495.78;;;13.02;100.00
60611;BME280;46439;51.164;13.572;2023-05-10T04:46:07;99498.00;;;13.07;100.00
60611;BME280;46439;51.164;13.572;2023-05-10T04:48:36;99494.79;;;13.08;100.00
60611;BME280;46439;51.164;13.572;2023-05-10T04:51:05;99501.67;;;13.12;100.00
60611;BME280;46439;51.164;13.572;2023-05-10T04:53:34;99502.71;;;13.16;100.00
60611;BME280;46439;51.164;13.572;2023-05-10T04:56:03;99505.39;;;13.19;100.00
60611;BME280;46439;51.164;13.572;2023-05-10T04:58:32;99508.81;;;13.22;100.00
60611;BME280;46439;51.164;13.572;2023-05-10T05:01:06;99507.78;;;13.26;100.00
60611;BME280;46439;51.164;13.572;2023-05-10T05:03:35;99507.31;;;13.32;100.00
60611;BME280;46439;51.164;13.572;2023-05-10T05:06:05;99503.43;;;13.38;100.00
60611;BME280;46439;51.164;13.572;2023-05-10T05:08:34;99508.19;;;13.43;100.00
60611;BME280;46439;51.164;13.572;2023-05-10T05:11:02;99507.02;;;13.49;100.00
60611;BME280;46439;51.164;13.572;2023-05-10T05:13:31;99509.20;;;13.53;100.00
60611;BME280;46439;51.164;13.572;2023-05-10T05:16:01;99511.82;;;13.56;100.00
60611;BME280;46439;51.164;13.572;2023-05-10T05:18:31;99513.74;;;13.62;100.00
60611;BME280;46439;51.164;13.572;2023-05-10T05:20:59;99520.13;;;13.65;100.00
60611;BME280;46439;51.164;13.572;2023-05-10T05:23:28;99513.81;;;13.67;100.00
60611;BME280;46439;51.164;13.572;2023-05-10T05:25:56;99512.66;;;13.70;100.00
60611;BME280;46439;51.164;13.572;2023-05-10T05:28:25;99515.70;;;13.73;100.00
60611;BME280;46439;51.164;13.572;2023-05-10T05:30:53;99513.69;;;13.74;100.00
60611;BME280;46439;51.164;13.572;2023-05-10T05:33:22;99509.80;;;13.77;100.00
60611;BME280;46439;51.164;13.572;2023-05-10T05:35:50;99509.84;;;13.83;100.00
60611;BME280;46439;51.164;13.572;2023-05-10T05:38:19;99510.91;;;13.88;100.00
60611;BME280;46439;51.164;13.572;2023-05-10T05:40:48;99512.71;;;13.93;100.00
60611;BME280;46439;51.164;13.572;2023-05-10T05:43:16;99512.73;;;13.97;100.00
60611;BME280;46439;51.164;13.572;2023-05-10T05:45:45;99509.68;;;14.02;100.00
60611;BME280;46439;51.164;13.572;2023-05-10T05:48:13;99511.02;;;14.13;100.00
60611;BME280;46439;51.164;13.572;2023-05-10T05:50:41;99510.80;;;14.20;100.00
60611;BME280;46439;51.164;13.572;2023-05-10T05:53:10;99512.86;;;14.31;100.00
60611;BME280;46439;51.164;13.572;2023-05-10T05:55:39;99513.33;;;14.37;100.00
60611;BME280;46439;51.164;13.572;2023-05-10T05:58:07;99515.89;;;14.45;100.00
60611;BME280;46439;51.164;13.572;2023-05-10T06:00:36;99518.89;;;14.51;100.00
60611;BME280;46439;51.164;13.572;2023-05-10T06:03:04;99519.34;;;14.59;100.00
60611;BME280;46439;51.164;13.572;2023-05-10T06:05:33;99515.37;;;14.69;100.00
60611;BME280;46439;51.164;13.572;2023-05-10T06:08:02;99513.90;;;14.79;100.00
60611;BME280;46439;51.164;13.572;2023-05-10T06:10:30;99514.17;;;14.90;100.00
60611;BME280;46439;51.164;13.572;2023-05-10T06:12:59;99514.02;;;15.02;100.00
60611;BME280;46439;51.164;13.572;2023-05-10T06:15:28;99513.80;;;15.14;100.00
60611;BME280;46439;51.164;13.572;2023-05-10T06:17:56;99512.91;;;15.24;100.00
60611;BME280;46439;51.164;13.572;2023-05-10T06:20:25;99514.58;;;15.35;100.00
60611;BME280;46439;51.164;13.572;2023-05-10T06:22:53;99517.71;;;15.46;100.00
60611;BME280;46439;51.164;13.572;2023-05-10T06:25:22;99516.46;;;15.56;100.00
60611;BME280;46439;51.164;13.572;2023-05-10T06:27:51;99516.45;;;15.67;100.00
60611;BME280;46439;51.164;13.572;2023-05-10T06:30:24;99514.22;;;15.82;100.00
60611;BME280;46439;51.164;13.572;2023-05-10T06:32:55;99515.31;;;15.90;100.00
60611;BME280;46439;51.164;13.572;2023-05-10T06:35:24;99511.81;;;16.01;100.00
60611;BME280;46439;51.164;13.572;2023-05-10T06:37:52;99518.88;;;16.11;100.00
60611;BME280;46439;51.164;13.572;2023-05-10T06:40:21;99520.03;;;16.20;100.00
60611;BME280;46439;51.164;13.572;2023-05-10T06:42:50;99518.02;;;16.28;100.00
60611;BME280;46439;51.164;13.572;2023-05-10T06:45:19;99524.28;;;16.37;100.00
60611;BME280;46439;51.164;13.572;2023-05-10T06:47:47;99512.56;;;16.46;100.00
60611;BME280;46439;51.164;13.572;2023-05-10T06:50:16;99515.96;;;16.52;100.00
60611;BME280;46439;51.164;13.572;2023-05-10T06:52:45;99512.34;;;16.61;100.00
60611;BME280;46439;51.164;13.572;2023-05-10T06:55:13;99509.88;;;16.73;100.00
60611;BME280;46439;51.164;13.572;2023-05-10T06:57:42;99507.84;;;16.87;100.00
60611;BME280;46439;51.164;13.572;2023-05-10T07:00:12;99509.48;;;16.95;100.00
60611;BME280;46439;51.164;13.572;2023-05-10T07:02:41;99513.36;;;17.05;100.00
60611;BME280;46439;51.164;13.572;2023-05-10T07:05:10;99515.44;;;17.16;100.00
60611;BME280;46439;51.164;13.572;2023-05-10T07:07:39;99511.45;;;17.26;100.00
60611;BME280;46439;51.164;13.572;2023-05-10T07:10:10;99510.98;;;17.38;100.00
60611;BME280;46439;51.164;13.572;2023-05-10T07:12:38;99510.63;;;17.50;100.00
60611;BME280;46439;51.164;13.572;2023-05-10T07:15:08;99511.35;;;17.62;100.00
60611;BME280;46439;51.164;13.572;2023-05-10T07:17:37;99511.48;;;17.72;100.00
60611;BME280;46439;51.164;13.572;2023-05-10T07:20:08;99506.60;;;17.82;100.00
60611;BME280;46439;51.164;13.572;2023-05-10T07:22:36;99505.84;;;17.91;100.00
60611;BME280;46439;51.164;13.572;2023-05-10T07:25:07;99509.98;;;17.98;100.00
60611;BME280;46439;51.164;13.572;2023-05-10T07:27:35;99506.34;;;18.05;100.00
60611;BME280;46439;51.164;13.572;2023-05-10T07:30:05;99507.55;;;18.14;100.00
60611;BME280;46439;51.164;13.572;2023-05-10T07:32:34;99506.79;;;18.21;100.00
60611;BME280;46439;51.164;13.572;2023-05-10T07:35:02;99505.44;;;18.28;100.00
60611;BME280;46439;51.164;13.572;2023-05-10T07:37:31;99511.37;;;18.34;100.00
60611;BME280;46439;51.164;13.572;2023-05-10T07:40:00;99512.24;;;18.42;100.00
60611;BME280;46439;51.164;13.572;2023-05-10T07:42:28;99510.42;;;18.48;100.00
60611;BME280;46439;51.164;13.572;2023-05-10T07:44:57;99516.94;;;18.54;100.00
60611;BME280;46439;51.164;13.572;2023-05-10T07:47:26;99512.03;;;18.61;100.00
60611;BME280;46439;51.164;13.572;2023-05-10T07:49:54;99510.97;;;18.68;100.00
60611;BME280;46439;51.164;13.572;2023-05-10T07:52:23;99509.02;;;18.74;100.00
60611;BME280;46439;51.164;13.572;2023-05-10T07:54:51;99509.03;;;18.78;100.00
60611;BME280;46439;51.164;13.572;2023-05-10T07:57:20;99509.13;;;18.78;100.00
60611;BME280;46439;51.164;13.572;2023-05-10T07:59:49;99505.17;;;18.85;100.00
60611;BME280;46439;51.164;13.572;2023-05-10T08:02:17;99506.95;;;18.90;100.00
60611;BME280;46439;51.164;13.572;2023-05-10T08:04:46;99502.65;;;18.97;100.00
60611;BME280;46439;51.164;13.572;2023-05-10T08:07:15;99504.41;;;19.07;100.00
60611;BME280;46439;51.164;13.572;2023-05-10T08:09:43;99502.30;;;19.17;100.00
60611;BME280;46439;51.164;13.572;2023-05-10T08:12:11;99504.17;;;19.25;100.00
60611;BME280;46439;51.164;13.572;2023-05-10T08:14:40;99503.89;;;19.30;100.00
60611;BME280;46439;51.164;13.572;2023-05-10T08:17:08;99502.88;;;19.37;100.00
60611;BME280;46439;51.164;13.572;2023-05-10T08:19:37;99509.59;;;19.46;100.00
60611;BME280;46439;51.164;13.572;2023-05-10T08:22:05;99508.24;;;19.54;100.00
60611;BME280;46439;51.164;13.572;2023-05-10T08:24:34;99508.47;;;19.61;100.00
60611;BME280;46439;51.164;13.572;2023-05-10T08:27:04;99510.42;;;19.70;100.00
60611;BME280;46439;51.164;13.572;2023-05-10T08:29:33;99512.06;;;19.79;100.00
60611;BME280;46439;51.164;13.572;2023-05-10T08:32:02;99517.66;;;19.87;100.00
60611;BME280;46439;51.164;13.572;2023-05-10T08:34:31;99517.16;;;19.93;100.00
60611;BME280;46439;51.164;13.572;2023-05-10T08:36:59;99519.06;;;20.00;100.00
60611;BME280;46439;51.164;13.572;2023-05-10T08:39:28;99521.72;;;20.06;100.00
60611;BME280;46439;51.164;13.572;2023-05-10T08:42:00;99527.33;;;20.15;100.00
60611;BME280;46439;51.164;13.572;2023-05-10T08:44:31;99521.35;;;20.27;100.00
60611;BME280;46439;51.164;13.572;2023-05-10T08:47:00;99519.80;;;20.33;100.00
60611;BME280;46439;51.164;13.572;2023-05-10T08:49:32;99522.54;;;20.38;100.00
60611;BME280;46439;51.164;13.572;2023-05-10T08:52:03;99521.21;;;20.41;100.00
60611;BME280;46439;51.164;13.572;2023-05-10T08:54:32;99526.48;;;20.46;100.00
60611;BME280;46439;51.164;13.572;2023-05-10T08:57:02;99529.10;;;20.52;100.00
60611;BME280;46439;51.164;13.572;2023-05-10T08:59:31;99529.17;;;20.58;100.00
60611;BME280;46439;51.164;13.572;2023-05-10T09:02:01;99533.88;;;20.68;100.00
60611;BME280;46439;51.164;13.572;2023-05-10T09:04:32;99536.73;;;20.78;100.00
60611;BME280;46439;51.164;13.572;2023-05-10T09:07:00;99536.42;;;20.84;100.00
60611;BME280;46439;51.164;13.572;2023-05-10T09:09:30;99537.33;;;20.96;100.00
60611;BME280;46439;51.164;13.572;2023-05-10T09:11:59;99542.87;;;21.01;100.00
60611;BME280;46439;51.164;13.572;2023-05-10T09:14:28;99542.19;;;21.05;100.00
60611;BME280;46439;51.164;13.572;2023-05-10T09:16:57;99539.23;;;21.11;100.00
60611;BME280;46439;51.164;13.572;2023-05-10T09:19:26;99542.85;;;21.21;100.00
60611;BME280;46439;51.164;13.572;2023-05-10T09:21:56;99544.62;;;21.32;100.00
60611;BME280;46439;51.164;13.572;2023-05-10T09:24:28;99546.05;;;21.39;100.00
60611;BME280;46439;51.164;13.572;2023-05-10T09:26:58;99550.53;;;21.46;100.00
60611;BME280;46439;51.164;13.572;2023-05-10T09:29:26;99546.59;;;21.53;100.00
60611;BME280;46439;51.164;13.572;2023-05-10T09:32:06;99546.17;;;21.62;100.00
60611;BME280;46439;51.164;13.572;2023-05-10T09:34:35;99543.48;;;21.68;100.00
60611;BME280;46439;51.164;13.572;2023-05-10T09:37:08;99543.80;;;21.80;100.00
60611;BME280;46439;51.164;13.572;2023-05-10T09:39:37;99545.34;;;21.90;100.00
60611;BME280;46439;51.164;13.572;2023-05-10T09:42:07;99541.68;;;21.99;100.00
60611;BME280;46439;51.164;13.572;2023-05-10T09:44:36;99543.62;;;22.09;100.00
60611;BME280;46439;51.164;13.572;2023-05-10T09:47:06;99543.86;;;22.21;100.00
60611;BME280;46439;51.164;13.572;2023-05-10T09:49:35;99539.48;;;22.30;100.00
60611;BME280;46439;51.164;13.572;2023-05-10T09:52:05;99543.38;;;22.38;100.00
60611;BME280;46439;51.164;13.572;2023-05-10T09:54:35;99544.52;;;22.47;100.00
60611;BME280;46439;51.164;13.572;2023-05-10T09:57:04;99541.98;;;22.56;100.00
60611;BME280;46439;51.164;13.572;2023-05-10T09:59:34;99539.38;;;22.63;100.00
60611;BME280;46439;51.164;13.572;2023-05-10T10:02:04;99539.02;;;22.70;100.00
60611;BME280;46439;51.164;13.572;2023-05-10T10:04:32;99541.28;;;22.73;100.00
60611;BME280;46439;51.164;13.572;2023-05-10T10:07:07;99543.73;;;22.79;100.00
60611;BME280;46439;51.164;13.572;2023-05-10T10:09:36;99539.46;;;22.87;100.00
60611;BME280;46439;51.164;13.572;2023-05-10T10:12:06;99537.81;;;22.91;100.00
60611;BME280;46439;51.164;13.572;2023-05-10T10:14:35;99535.52;;;22.93;100.00
60611;BME280;46439;51.164;13.572;2023-05-10T10:17:04;99533.61;;;22.99;100.00
60611;BME280;46439;51.164;13.572;2023-05-10T10:19:34;99536.80;;;23.08;100.00
60611;BME280;46439;51.164;13.572;2023-05-10T10:22:03;99532.63;;;23.15;100.00
60611;BME280;46439;51.164;13.572;2023-05-10T10:24:32;99533.61;;;23.19;100.00
60611;BME280;46439;51.164;13.572;2023-05-10T10:27:07;99536.27;;;23.18;100.00
60611;BME280;46439;51.164;13.572;2023-05-10T10:29:41;99532.79;;;23.21;100.00
60611;BME280;46439;51.164;13.572;2023-05-10T10:32:22;99531.95;;;23.26;100.00
60611;BME280;46439;51.164;13.572;2023-05-10T10:34:55;99535.30;;;23.34;100.00
60611;BME280;46439;51.164;13.572;2023-05-10T10:37:25;99531.39;;;23.40;100.00
60611;BME280;46439;51.164;13.572;2023-05-10T10:40:26;99527.48;;;23.46;100.00
60611;BME280;46439;51.164;13.572;2023-05-10T10:42:56;99527.83;;;23.43;100.00
60611;BME280;46439;51.164;13.572;2023-05-10T10:45:25;99528.98;;;23.48;100.00
60611;BME280;46439;51.164;13.572;2023-05-10T10:48:23;99535.20;;;23.56;100.00
60611;BME280;46439;51.164;13.572;2023-05-10T10:50:58;99534.65;;;23.64;100.00
60611;BME280;46439;51.164;13.572;2023-05-10T10:53:28;99533.77;;;23.66;100.00
60611;BME280;46439;51.164;13.572;2023-05-10T10:56:06;99532.95;;;23.66;100.00
60611;BME280;46439;51.164;13.572;2023-05-10T10:58:37;99534.27;;;23.72;100.00
60611;BME280;46439;51.164;13.572;2023-05-10T11:01:14;99533.06;;;23.74;100.00
60611;BME280;46439;51.164;13.572;2023-05-10T11:06:38;99528.83;;;23.82;100.00
60611;BME280;46439;51.164;13.572;2023-05-10T11:09:09;99528.11;;;23.91;100.00
60611;BME280;46439;51.164;13.572;2023-05-10T11:11:50;99529.55;;;23.96;100.00
60611;BME280;46439;51.164;13.572;2023-05-10T11:14:22;99528.36;;;24.03;100.00
60611;BME280;46439;51.164;13.572;2023-05-10T11:16:52;99530.52;;;24.06;100.00
60611;BME280;46439;51.164;13.572;2023-05-10T11:19:20;99528.08;;;24.12;100.00
60611;BME280;46439;51.164;13.572;2023-05-10T11:21:51;99527.17;;;24.19;100.00
60611;BME280;46439;51.164;13.572;2023-05-10T11:24:22;99529.80;;;24.31;100.00
60611;BME280;46439;51.164;13.572;2023-05-10T11:26:52;99528.38;;;24.45;100.00
60611;BME280;46439;51.164;13.572;2023-05-10T11:29:21;99531.67;;;24.54;100.00
60611;BME280;46439;51.164;13.572;2023-05-10T11:31:51;99527.59;;;24.55;100.00
60611;BME280;46439;51.164;13.572;2023-05-10T11:34:27;99534.39;;;24.54;100.00
60611;BME280;46439;51.164;13.572;2023-05-10T11:36:56;99538.73;;;24.57;100.00
60611;BME280;46439;51.164;13.572;2023-05-10T11:39:29;99535.85;;;24.62;100.00
60611;BME280;46439;51.164;13.572;2023-05-10T11:41:58;99536.20;;;24.70;100.00
60611;BME280;46439;51.164;13.572;2023-05-10T11:44:30;99532.16;;;24.75;100.00
60611;BME280;46439;51.164;13.572;2023-05-10T11:47:01;99534.93;;;24.81;100.00
60611;BME280;46439;51.164;13.572;2023-05-10T11:49:29;99534.82;;;24.93;100.00
60611;BME280;46439;51.164;13.572;2023-05-10T11:52:06;99534.20;;;24.94;100.00
60611;BME280;46439;51.164;13.572;2023-05-10T11:54:35;99542.64;;;24.98;100.00
60611;BME280;46439;51.164;13.572;2023-05-10T11:57:04;99538.14;;;25.02;100.00
60611;BME280;46439;51.164;13.572;2023-05-10T11:59:33;99541.77;;;25.13;100.00
60611;BME280;46439;51.164;13.572;2023-05-10T12:02:01;99546.22;;;25.19;100.00
60611;BME280;46439;51.164;13.572;2023-05-10T12:04:32;99545.20;;;25.27;100.00
60611;BME280;46439;51.164;13.572;2023-05-10T12:07:00;99550.07;;;25.33;100.00
60611;BME280;46439;51.164;13.572;2023-05-10T12:09:29;99553.36;;;25.39;100.00
60611;BME280;46439;51.164;13.572;2023-05-10T12:11:58;99546.73;;;25.40;100.00
60611;BME280;46439;51.164;13.572;2023-05-10T12:14:26;99556.42;;;25.27;100.00
60611;BME280;46439;51.164;13.572;2023-05-10T12:16:55;99557.57;;;25.15;100.00
60611;BME280;46439;51.164;13.572;2023-05-10T12:19:25;99561.98;;;25.05;100.00
60611;BME280;46439;51.164;13.572;2023-05-10T12:21:53;99559.66;;;24.97;100.00
60611;BME280;46439;51.164;13.572;2023-05-10T12:24:22;99561.69;;;24.98;100.00
60611;BME280;46439;51.164;13.572;2023-05-10T12:26:53;99560.16;;;25.04;100.00
60611;BME280;46439;51.164;13.572;2023-05-10T12:29:22;99561.01;;;25.12;100.00
60611;BME280;46439;51.164;13.572;2023-05-10T12:31:56;99568.23;;;25.15;100.00
60611;BME280;46439;51.164;13.572;2023-05-10T12:34:29;99575.72;;;25.09;100.00
60611;BME280;46439;51.164;13.572;2023-05-10T12:36:58;99573.81;;;25.03;100.00
60611;BME280;46439;51.164;13.572;2023-05-10T12:39:27;99578.23;;;24.92;100.00
60611;BME280;46439;51.164;13.572;2023-05-10T12:42:06;99583.11;;;24.89;100.00
60611;BME280;46439;51.164;13.572;2023-05-10T12:44:34;99590.21;;;24.79;100.00
60611;BME280;46439;51.164;13.572;2023-05-10T12:47:03;99592.59;;;24.61;100.00
60611;BME280;46439;51.164;13.572;2023-05-10T12:49:32;99593.72;;;24.38;100.00
60611;BME280;46439;51.164;13.572;2023-05-10T12:52:00;99595.55;;;24.11;100.00
60611;BME280;46439;51.164;13.572;2023-05-10T12:54:29;99600.84;;;23.92;100.00
60611;BME280;46439;51.164;13.572;2023-05-10T12:56:57;99606.45;;;23.79;100.00
60611;BME280;46439;51.164;13.572;2023-05-10T12:59:26;99611.64;;;23.63;100.00